Terminal Aerodrome Forecast
Issued by NWS Sterling, VA

Home | Current Version | Previous Version | Text Only | Print | Product List | Glossary On
Versions: 1 2 3 4 5 6 7 8 9 10 11 12 13
000
FTUS41 KLWX 262340
TAFMRB
TAF
KMRB 262340Z 2700/2724 21006KT P6SM VCSH BKN050
     FM270300 17005KT P6SM SCT050 OVC090
     FM271200 21005KT P6SM SCT050 BKN100
     FM271600 22006KT 6SM -SHRA BKN050 OVC100=

USA.gov is the U.S. government's official web portal to all federal, state and local government web resources and services.